Time;durP1;ratioP1;P1;durP2;ratioP2;P2;SDS_P1;SDS_P2;PMS_P1;PMS_P2;Temp;Humidity;BMP_temperature;BMP_pressure;BME280_temperature;BME280_humidity;BME280_pressure;Samples;Min_cycle;Max_cycle;Signal;HPM_P1;HPM_P2
2022/03/04 00:00:27;;;;;;;138.83;58.50;;;;;;;1.14;72.46;94564.50;5082070;28;20248;-81
2022/03/04 00:02:54;;;;;;;131.20;54.53;;;;;;;1.10;72.32;94559.81;5085403;28;20565;-81
2022/03/04 00:05:19;;;;;;;117.93;49.60;;;;;;;1.09;71.54;94563.38;5096330;28;20177;-81
2022/03/04 00:07:45;;;;;;;110.97;47.53;;;;;;;0.91;72.16;94552.34;5096655;28;20168;-81
2022/03/04 00:10:10;;;;;;;91.83;41.60;;;;;;;0.75;71.91;94530.63;5087684;28;20255;-82
2022/03/04 00:12:36;;;;;;;93.97;39.97;;;;;;;0.84;71.79;94549.59;5087425;28;20165;-82
2022/03/04 00:15:01;;;;;;;81.17;37.70;;;;;;;0.41;72.97;94496.25;5086879;28;20188;-82
2022/03/04 00:17:27;;;;;;;85.63;38.10;;;;;;;0.50;72.74;94510.00;5088230;28;20185;-81
2022/03/04 00:19:52;;;;;;;88.90;39.50;;;;;;;0.75;73.35;94550.53;5096114;28;20294;-81
2022/03/04 00:22:18;;;;;;;83.77;38.63;;;;;;;0.87;73.11;94559.59;5096243;28;20170;-82
2022/03/04 00:24:44;;;;;;;86.70;40.53;;;;;;;0.67;73.15;94528.03;5095795;28;20688;-81
2022/03/04 00:27:10;;;;;;;94.43;42.07;;;;;;;0.91;72.52;94555.75;5095967;28;20160;-81
2022/03/04 00:29:35;;;;;;;95.20;42.77;;;;;;;0.89;72.85;94557.69;5095748;28;20647;-81
2022/03/04 00:32:01;;;;;;;79.50;36.43;;;;;;;0.71;72.98;94533.69;5095802;28;20177;-81
2022/03/04 00:34:26;;;;;;;120.50;45.77;;;;;;;0.38;73.57;94479.25;5096011;28;20154;-81
2022/03/04 00:36:51;;;;;;;106.17;45.23;;;;;;;0.46;73.30;94491.38;5094418;28;20264;-81
2022/03/04 00:39:17;;;;;;;108.13;45.27;;;;;;;0.86;73.08;94550.25;5095670;28;20162;-81
2022/03/04 00:41:54;;;;;;;106.37;47.60;;;;;;;0.83;73.04;94544.56;5094509;28;20181;-81
2022/03/04 00:44:19;;;;;;;114.67;46.47;;;;;;;0.82;72.78;94546.34;5094291;28;20177;-81
2022/03/04 00:46:45;;;;;;;117.43;46.73;;;;;;;0.49;72.01;94487.69;5095495;28;20181;-81
2022/03/04 00:49:10;;;;;;;127.20;48.57;;;;;;;0.72;72.72;94554.25;5095676;28;20193;-81
2022/03/04 00:51:36;;;;;;;126.30;47.97;;;;;;;0.19;73.47;94473.50;5094293;28;20170;-81
2022/03/04 00:54:01;;;;;;;130.40;50.33;;;;;;;0.54;73.44;94525.06;5079537;28;20226;-81
2022/03/04 00:56:27;;;;;;;140.60;51.03;;;;;;;0.53;74.01;94523.44;5086709;28;20170;-81
2022/03/04 00:58:52;;;;;;;125.53;49.90;;;;;;;0.68;73.59;94542.59;5082702;28;20265;-81
2022/03/04 01:01:17;;;;;;;123.87;50.00;;;;;;;0.72;73.52;94549.06;5074932;28;20247;-81
2022/03/04 01:03:43;;;;;;;117.47;49.73;;;;;;;0.52;73.30;94510.66;5075045;28;20163;-81
2022/03/04 01:06:08;;;;;;;149.40;51.83;;;;;;;0.51;73.46;94496.91;5074792;28;20172;-81
2022/03/04 01:08:34;;;;;;;155.13;58.70;;;;;;;0.69;73.71;94533.03;5074691;28;20273;-81
2022/03/04 01:11:05;;;;;;;144.60;56.93;;;;;;;0.68;73.71;94515.88;5074741;28;20158;-81
2022/03/04 01:13:31;;;;;;;142.70;54.47;;;;;;;0.78;73.57;94533.88;5074905;28;20920;-81
2022/03/04 01:15:56;;;;;;;141.67;51.27;;;;;;;0.59;73.31;94506.47;5075010;28;20209;-81
2022/03/04 01:18:22;;;;;;;114.77;45.73;;;;;;;0.67;74.29;94519.44;5074589;28;20175;-81
2022/03/04 01:20:47;;;;;;;114.47;44.63;;;;;;;0.64;74.15;94523.16;5074732;28;20163;-81
2022/03/04 01:23:12;;;;;;;120.17;49.27;;;;;;;0.30;74.80;94476.63;5074882;28;20320;-81
2022/03/04 01:25:38;;;;;;;122.17;47.90;;;;;;;0.40;74.99;94484.25;5074430;28;20308;-81
2022/03/04 01:28:03;;;;;;;111.40;45.53;;;;;;;0.42;74.82;94490.09;5074935;28;20205;-81
2022/03/04 01:30:29;;;;;;;112.00;45.37;;;;;;;0.42;74.79;94482.34;5082788;28;20666;-81
2022/03/04 01:32:54;;;;;;;92.07;37.50;;;;;;;0.40;74.85;94462.75;5077179;28;20697;-81
2022/03/04 01:35:20;;;;;;;84.03;34.53;;;;;;;0.50;74.42;94484.13;5081428;28;20253;-81
2022/03/04 01:37:48;;;;;;;75.77;32.43;;;;;;;0.54;74.49;94485.41;5091609;28;20553;-81
2022/03/04 01:40:15;;;;;;;52.10;25.40;;;;;;;0.68;73.70;94513.28;5093141;28;20680;-81
2022/03/04 01:42:40;;;;;;;79.33;33.03;;;;;;;0.35;73.57;94458.03;5094430;28;20154;-81
2022/03/04 01:45:09;;;;;;;68.60;31.47;;;;;;;0.49;74.03;94505.81;5094644;28;20166;-81
2022/03/04 01:47:38;;;;;;;76.83;31.57;;;;;;;0.16;74.73;94464.31;5094710;28;20529;-81
2022/03/04 01:50:05;;;;;;;51.30;24.10;;;;;;;0.50;74.10;94508.25;5094224;28;20189;-81
2022/03/04 01:52:30;;;;;;;67.77;29.10;;;;;;;0.25;75.02;94462.56;5092991;28;20189;-81
2022/03/04 01:54:56;;;;;;;73.27;31.73;;;;;;;0.45;74.69;94489.75;5094206;28;20178;-81
2022/03/04 01:57:21;;;;;;;81.67;32.50;;;;;;;0.57;74.70;94503.22;5094120;28;20648;-81
2022/03/04 01:59:47;;;;;;;78.27;32.17;;;;;;;0.38;73.86;94471.47;5087239;28;20607;-81
2022/03/04 02:02:57;;;;;;;78.43;35.17;;;;;;;0.57;73.81;94491.09;5083517;28;20174;-81
2022/03/04 02:05:23;;;;;;;85.13;34.30;;;;;;;0.40;74.46;94460.97;5081548;28;20175;-81
2022/03/04 02:07:48;;;;;;;73.23;34.43;;;;;;;0.50;74.82;94486.72;5081986;28;20177;-81
2022/03/04 02:10:13;;;;;;;91.00;36.43;;;;;;;0.46;74.90;94470.69;5073667;28;20163;-81
2022/03/04 02:12:40;;;;;;;84.03;34.43;;;;;;;0.32;75.01;94468.72;5073555;28;20178;-81
2022/03/04 02:15:09;;;;;;;93.77;34.57;;;;;;;0.40;75.06;94493.81;5073641;28;20174;-81
2022/03/04 02:17:35;;;;;;;83.17;34.23;;;;;;;0.16;75.55;94455.72;5072204;28;20185;-81
2022/03/04 02:20:01;;;;;;;87.23;34.57;;;;;;;0.34;75.84;94477.13;5074012;28;20882;-81
2022/03/04 02:22:26;;;;;;;79.87;34.13;;;;;;;0.28;75.07;94478.56;5071894;28;20606;-80
2022/03/04 02:24:52;;;;;;;82.00;36.03;;;;;;;0.24;75.53;94466.91;5073236;28;20253;-81
2022/03/04 02:27:17;;;;;;;87.87;35.43;;;;;;;0.19;75.35;94443.28;5073715;28;20506;-80
2022/03/04 02:29:43;;;;;;;77.47;34.47;;;;;;;0.27;74.89;94453.63;5071880;28;20233;-81
2022/03/04 02:32:09;;;;;;;77.03;33.57;;;;;;;0.14;75.34;94435.19;5073735;28;20158;-81
2022/03/04 02:34:34;;;;;;;78.47;39.43;;;;;;;0.06;75.38;94416.25;5081814;28;20189;-81
2022/03/04 02:37:00;;;;;;;82.53;32.33;;;;;;;0.26;75.45;94446.84;5081722;28;20175;-81
2022/03/04 02:39:25;;;;;;;76.37;31.73;;;;;;;0.26;74.64;94448.66;5081547;28;20169;-81
2022/03/04 02:42:04;;;;;;;73.57;31.47;;;;;;;0.47;75.25;94489.59;5082606;28;20197;-81
2022/03/04 02:44:30;;;;;;;91.60;33.73;;;;;;;0.22;75.00;94448.13;5093547;28;20205;-81
2022/03/04 02:46:55;;;;;;;91.80;36.20;;;;;;;0.29;74.67;94467.25;5093192;28;20240;-81
2022/03/04 02:49:20;;;;;;;93.77;44.90;;;;;;;0.37;75.97;94480.19;5091849;28;20593;-81
2022/03/04 02:51:46;;;;;;;94.83;53.23;;;;;;;0.37;75.83;94487.16;5093073;28;20603;-81
2022/03/04 02:54:11;;;;;;;149.73;130.67;;;;;;;0.38;75.90;94488.78;5093041;28;20154;-81
2022/03/04 02:56:37;;;;;;;103.60;53.20;;;;;;;-0.08;75.43;94409.88;5093070;28;20644;-81
2022/03/04 02:59:03;;;;;;;92.63;48.23;;;;;;;0.24;75.20;94453.16;5093107;28;20172;-84
2022/03/04 03:01:28;;;;;;;89.43;38.30;;;;;;;0.40;75.72;94484.25;5091626;28;20158;-83
2022/03/04 03:03:54;;;;;;;83.13;36.53;;;;;;;0.00;75.84;94423.66;5092881;28;20248;-83
2022/03/04 03:06:19;;;;;;;99.80;38.87;;;;;;;0.09;75.12;94434.06;5092895;28;20622;-82
2022/03/04 03:08:45;;;;;;;89.87;36.23;;;;;;;0.45;74.54;94488.94;5092823;28;20247;-83
2022/03/04 03:11:10;;;;;;;80.23;33.73;;;;;;;0.10;74.58;94449.38;5092677;28;20165;-83
2022/03/04 03:13:36;;;;;;;75.20;31.37;;;;;;;0.00;75.05;94453.91;5091425;28;20252;-83
2022/03/04 03:16:02;;;;;;;77.57;41.27;;;;;;;-0.13;75.28;94436.22;5093257;28;20173;-83
2022/03/04 03:18:28;;;;;;;130.10;112.40;;;;;;;-0.09;75.35;94442.69;5108378;28;20249;-82
2022/03/04 03:20:53;;;;;;;145.53;131.87;;;;;;;-0.12;75.46;94414.56;5092539;28;20659;-82
2022/03/04 03:23:18;;;;;;;71.93;38.27;;;;;;;0.24;75.04;94468.69;5092604;28;20166;-82
2022/03/04 03:25:44;;;;;;;60.53;27.27;;;;;;;0.27;74.21;94468.34;5083584;28;20232;-82
2022/03/04 03:28:09;;;;;;;70.63;29.30;;;;;;;0.29;74.37;94487.13;5088735;28;20225;-83
2022/03/04 03:30:37;;;;;;;60.80;28.57;;;;;;;0.01;74.49;94450.34;5082456;28;20185;-83
2022/03/04 03:33:02;;;;;;;67.73;29.53;;;;;;;0.27;74.44;94491.66;5076210;28;20171;-83
2022/03/04 03:35:28;;;;;;;73.77;30.47;;;;;;;-0.18;74.63;94422.16;5070960;28;20189;-83
2022/03/04 03:38:04;;;;;;;71.40;30.83;;;;;;;0.26;74.17;94496.00;5070854;28;20166;-84
2022/03/04 03:40:30;;;;;;;77.80;31.67;;;;;;;-0.13;74.31;94436.22;5072432;28;20245;-80
2022/03/04 03:43:14;;;;;;;66.50;29.00;;;;;;;0.24;73.95;94495.38;5071112;28;20658;-81
2022/03/04 03:45:40;;;;;;;74.47;31.63;;;;;;;-0.01;74.16;94472.97;5072642;28;20182;-80
2022/03/04 03:48:05;;;;;;;65.23;29.93;;;;;;;-0.13;74.56;94463.88;5072231;28;20198;-80
2022/03/04 03:50:31;;;;;;;66.93;28.27;;;;;;;0.11;74.31;94502.75;5072331;28;20155;-80
2022/03/04 03:52:56;;;;;;;62.47;27.00;;;;;;;0.11;74.13;94495.00;5072608;28;20167;-80
2022/03/04 03:55:22;;;;;;;61.40;26.47;;;;;;;-0.15;74.26;94458.03;5072658;28;20167;-80
2022/03/04 03:57:48;;;;;;;64.40;28.53;;;;;;;0.06;74.69;94499.84;5072362;28;20610;-80
2022/03/04 04:00:14;;;;;;;54.17;25.90;;;;;;;0.01;75.28;94496.91;5072452;28;20166;-80
2022/03/04 04:02:41;;;;;;;58.47;26.53;;;;;;;-0.12;74.38;94476.66;5072685;28;20166;-80
2022/03/04 04:05:36;;;;;;;53.40;25.40;;;;;;;0.01;74.92;94499.47;5073473;28;20531;-80
2022/03/04 04:08:01;;;;;;;57.33;25.13;;;;;;;-0.11;74.85;94480.84;5079344;28;20185;-80
2022/03/04 04:10:27;;;;;;;60.47;28.63;;;;;;;-0.05;75.00;94500.09;5081728;28;20174;-80
2022/03/04 04:12:52;;;;;;;58.77;27.43;;;;;;;-0.40;75.04;94455.34;5080109;28;20174;-79
2022/03/04 04:15:19;;;;;;;57.50;33.53;;;;;;;-0.30;75.49;94472.53;5079929;28;20646;-80
2022/03/04 04:17:44;;;;;;;191.83;176.17;;;;;;;-0.29;76.03;94479.31;5084426;28;20672;-80
2022/03/04 04:20:10;;;;;;;320.80;293.97;;;;;;;-0.12;76.27;94510.28;5082082;28;20165;-80
2022/03/04 04:22:36;;;;;;;419.63;384.53;;;;;;;-0.20;76.04;94506.84;5082688;28;20170;-80
2022/03/04 04:25:01;;;;;;;570.03;525.13;;;;;;;-0.43;75.99;94463.41;5072083;28;20171;-80
2022/03/04 04:27:27;;;;;;;505.07;466.93;;;;;;;-0.34;75.85;94474.59;5071795;28;20308;-79
2022/03/04 04:29:52;;;;;;;140.53;125.63;;;;;;;-0.34;75.25;94459.06;5072161;28;20237;-80
2022/03/04 04:32:18;;;;;;;95.33;38.50;;;;;;;-0.25;74.88;94489.19;5072418;28;20166;-79
2022/03/04 04:34:43;;;;;;;513.83;456.63;;;;;;;-0.07;75.10;94518.38;5071996;28;20182;-80
2022/03/04 04:37:08;;;;;;;484.47;448.00;;;;;;;-0.03;75.14;94521.47;5071897;28;20299;-81
2022/03/04 04:39:34;;;;;;;141.93;112.83;;;;;;;-0.05;74.81;94510.47;5071533;28;20522;-81
2022/03/04 04:41:59;;;;;;;104.63;59.23;;;;;;;-0.14;74.81;94508.78;5071616;28;20155;-80
2022/03/04 04:44:25;;;;;;;116.70;56.10;;;;;;;-0.20;75.06;94504.25;5073712;28;20178;-80
2022/03/04 04:46:50;;;;;;;108.13;48.07;;;;;;;-0.21;74.58;94534.47;5075520;28;20580;-80
2022/03/04 04:49:16;;;;;;;114.00;43.87;;;;;;;-0.21;74.62;94534.47;5075473;28;20194;-81
2022/03/04 04:51:41;;;;;;;108.13;43.07;;;;;;;-0.51;74.40;94485.81;5076735;28;20235;-80
2022/03/04 04:54:06;;;;;;;79.17;34.53;;;;;;;-0.32;74.43;94524.38;5086073;28;20253;-80
2022/03/04 04:56:32;;;;;;;74.30;34.63;;;;;;;-0.35;74.84;94531.63;5082916;28;20646;-80
2022/03/04 04:58:57;;;;;;;114.13;100.37;;;;;;;-0.41;74.97;94533.84;5085800;28;20159;-80
2022/03/04 05:01:23;;;;;;;252.20;233.00;;;;;;;-0.38;75.86;94532.75;5075043;28;20616;-80
2022/03/04 05:03:48;;;;;;;246.40;226.47;;;;;;;-0.34;75.65;94534.06;5074833;28;20987;-80
2022/03/04 05:06:14;;;;;;;534.17;492.87;;;;;;;-0.42;75.49;94508.16;5078029;28;20705;-80
2022/03/04 05:08:39;;;;;;;715.83;651.33;;;;;;;-0.27;75.87;94535.09;5081085;28;20280;-80
2022/03/04 05:11:04;;;;;;;776.13;710.00;;;;;;;-0.20;75.32;94535.28;5082839;28;20251;-80
2022/03/04 05:13:30;;;;;;;479.77;444.13;;;;;;;-0.17;74.88;94533.19;5081726;28;20165;-80
2022/03/04 05:15:55;;;;;;;585.87;541.13;;;;;;;-0.33;74.96;94515.00;5085318;28;20178;-80
2022/03/04 05:18:21;;;;;;;670.60;612.27;;;;;;;-0.35;75.69;94501.44;5085693;28;20591;-82
2022/03/04 05:20:46;;;;;;;696.93;641.33;;;;;;;-0.13;75.28;94526.75;5080638;28;20213;-81
2022/03/04 05:23:58;;;;;;;509.93;474.77;;;;;;;0.02;74.52;94528.75;5084044;28;20209;-81
2022/03/04 05:25:57;;;;;;;410.80;380.87;;;;;;;0.12;74.49;94529.44;5088109;28;20182;-81
2022/03/04 05:28:22;;;;;;;333.80;307.53;;;;;;;0.24;73.72;94526.44;5090721;28;20264;-81
2022/03/04 05:30:48;;;;;;;73.93;33.43;;;;;;;0.63;73.35;94533.66;5081561;28;20182;-80
2022/03/04 05:33:13;;;;;;;83.77;35.30;;;;;;;0.84;71.67;94528.84;5082941;28;20216;-80
2022/03/04 05:35:38;;;;;;;72.07;33.70;;;;;;;0.63;70.03;94468.91;5082683;28;20186;-80
2022/03/04 05:38:04;;;;;;;74.60;35.10;;;;;;;0.89;69.56;94498.09;5082638;28;20183;-80
2022/03/04 05:40:29;;;;;;;70.27;33.80;;;;;;;0.91;70.47;94510.88;5083816;28;20216;-80
2022/03/04 05:42:57;;;;;;;74.13;32.27;;;;;;;0.79;69.98;94505.19;5084825;28;20197;-82
2022/03/04 05:45:22;;;;;;;45.27;23.33;;;;;;;0.58;70.24;94492.72;5079741;28;20629;-81
2022/03/04 05:47:47;;;;;;;60.90;27.03;;;;;;;0.90;71.32;94545.53;5073998;28;20159;-81
2022/03/04 05:50:14;;;;;;;61.13;27.00;;;;;;;0.63;71.26;94500.00;5073562;28;20210;-81
2022/03/04 05:52:40;;;;;;;62.97;25.20;;;;;;;0.92;71.36;94536.63;5073999;28;20173;-81
2022/03/04 05:55:06;;;;;;;53.87;24.90;;;;;;;0.87;71.16;94518.16;5081627;28;20649;-81
2022/03/04 05:57:31;;;;;;;69.40;26.77;;;;;;;1.18;71.14;94548.66;5082302;28;20169;-81
2022/03/04 05:59:58;;;;;;;65.03;31.97;;;;;;;1.08;69.93;94508.16;5082994;28;20197;-81
2022/03/04 06:02:25;;;;;;;65.87;31.07;;;;;;;1.37;69.29;94501.66;5085253;28;20600;-82
2022/03/04 06:04:50;;;;;;;64.43;29.57;;;;;;;1.98;68.40;94492.47;5086549;28;20236;-82
2022/03/04 06:07:15;;;;;;;64.97;29.67;;;;;;;2.47;64.92;94469.69;5085234;28;20564;-82
2022/03/04 06:10:13;;;;;;;58.13;27.37;;;;;;;3.33;62.42;94558.63;5085481;28;20200;-81
2022/03/04 06:12:38;;;;;;;59.53;27.17;;;;;;;3.50;60.70;94493.47;5074694;28;20261;-82
2022/03/04 06:15:04;;;;;;;72.70;35.47;;;;;;;4.60;58.99;94538.66;5073702;28;20281;-82
2022/03/04 06:17:30;;;;;;;92.37;40.17;;;;;;;5.15;55.61;94506.78;5072067;28;20596;-82
2022/03/04 06:19:55;;;;;;;93.73;36.67;;;;;;;5.17;54.38;94492.56;5073404;28;20270;-81
2022/03/04 06:22:21;;;;;;;74.40;30.50;;;;;;;5.02;54.37;94497.03;5072141;28;20293;-82
2022/03/04 06:24:47;;;;;;;58.23;29.60;;;;;;;4.89;54.42;94515.16;5072100;28;20170;-82
2022/03/04 06:27:12;;;;;;;52.70;26.67;;;;;;;5.16;54.87;94553.56;5073131;28;20218;-81
2022/03/04 06:29:38;;;;;;;51.43;24.80;;;;;;;5.32;54.08;94552.50;5073123;28;20670;-81
2022/03/04 06:32:04;;;;;;;54.07;24.20;;;;;;;5.63;53.95;94560.81;5073477;28;20540;-80
2022/03/04 06:34:30;;;;;;;51.73;24.07;;;;;;;5.60;53.71;94561.22;5073603;28;20630;-81
2022/03/04 06:36:55;;;;;;;53.07;25.47;;;;;;;5.37;54.18;94557.16;5073002;28;20172;-81
2022/03/04 06:39:22;;;;;;;54.40;23.87;;;;;;;5.02;54.60;94558.81;5081458;28;20638;-83
2022/03/04 06:41:48;;;;;;;51.67;24.40;;;;;;;4.71;56.05;94572.09;5081705;28;20622;-82
2022/03/04 06:44:14;;;;;;;53.27;23.33;;;;;;;4.05;57.13;94500.91;5082953;28;20194;-83
2022/03/04 06:46:40;;;;;;;44.80;23.13;;;;;;;3.88;57.51;94502.06;5084607;28;20238;-81
2022/03/04 06:49:10;;;;;;;47.40;24.57;;;;;;;4.04;57.89;94561.78;5084304;28;20504;-81
2022/03/04 06:51:36;;;;;;;52.03;25.57;;;;;;;3.92;59.35;94573.59;5084083;28;20216;-80
2022/03/04 06:54:02;;;;;;;53.83;25.67;;;;;;;3.77;59.59;94568.38;5081056;28;20606;-81
2022/03/04 06:56:27;;;;;;;54.00;25.33;;;;;;;3.34;60.74;94531.66;5083413;28;20206;-81
2022/03/04 06:58:53;;;;;;;57.73;27.07;;;;;;;3.27;61.37;94529.91;5081146;28;20200;-81
2022/03/04 07:01:18;;;;;;;66.43;28.33;;;;;;;3.51;61.66;94568.75;5083397;28;20564;-81
2022/03/04 07:03:44;;;;;;;58.03;28.00;;;;;;;3.42;61.74;94548.97;5081688;28;20181;-81
2022/03/04 07:06:09;;;;;;;56.13;28.97;;;;;;;3.77;61.35;94579.59;5080778;28;20250;-80
2022/03/04 07:08:42;;;;;;;74.03;32.43;;;;;;;3.76;60.67;94551.13;5089142;28;20596;-81
2022/03/04 07:11:07;;;;;;;62.33;31.07;;;;;;;3.61;60.21;94525.09;5078586;28;20196;-81
2022/03/04 07:13:33;;;;;;;63.20;29.17;;;;;;;4.08;59.67;94574.25;5082995;28;20173;-81
2022/03/04 07:15:58;;;;;;;55.77;28.73;;;;;;;4.24;58.71;94554.25;5077318;28;20660;-80
2022/03/04 07:18:24;;;;;;;61.60;29.30;;;;;;;4.51;58.49;94562.22;5083493;28;20347;-81
2022/03/04 07:20:50;;;;;;;59.90;28.90;;;;;;;5.07;56.68;94578.16;5082012;28;20650;-81
2022/03/04 07:23:16;;;;;;;52.83;27.63;;;;;;;5.27;55.47;94579.19;5080720;28;20167;-80
2022/03/04 07:25:42;;;;;;;63.43;32.43;;;;;;;5.48;55.07;94586.19;5080802;28;20179;-81
2022/03/04 07:28:08;;;;;;;77.93;34.87;;;;;;;5.05;54.13;94525.34;5082917;28;20226;-81
2022/03/04 07:30:34;;;;;;;75.43;36.07;;;;;;;5.42;55.31;94579.13;5081835;28;20184;-81
2022/03/04 07:33:00;;;;;;;64.27;32.63;;;;;;;5.37;55.41;94537.09;5082322;28;20182;-81
2022/03/04 07:35:25;;;;;;;61.07;33.77;;;;;;;5.69;54.75;94573.16;5082440;28;20664;-81
2022/03/04 07:37:56;;;;;;;62.87;31.67;;;;;;;5.82;53.89;94566.41;5084230;28;20181;-81
2022/03/04 07:40:21;;;;;;;67.23;31.60;;;;;;;5.87;54.61;94572.69;5072098;28;20162;-82
2022/03/04 07:42:47;;;;;;;62.63;32.43;;;;;;;6.03;54.64;94582.09;5086138;28;20184;-81
2022/03/04 07:45:13;;;;;;;55.60;30.17;;;;;;;6.03;52.70;94584.69;5082215;28;20816;-81
2022/03/04 07:47:39;;;;;;;66.37;33.37;;;;;;;5.71;53.00;94562.50;5087384;28;20186;-81
2022/03/04 07:50:07;;;;;;;58.57;32.00;;;;;;;5.41;54.96;94527.09;5082540;28;20290;-81
2022/03/04 07:52:33;;;;;;;67.67;30.70;;;;;;;5.86;54.41;94584.13;5083576;28;20265;-81
2022/03/04 07:55:00;;;;;;;66.00;30.97;;;;;;;5.87;54.39;94590.16;5083616;28;20253;-82
2022/03/04 07:57:25;;;;;;;59.00;31.93;;;;;;;5.57;53.00;94558.97;5082680;28;20189;-81
2022/03/04 07:59:51;;;;;;;57.70;29.67;;;;;;;5.44;54.35;94540.59;5080128;28;21021;-81
2022/03/04 08:02:16;;;;;;;66.20;32.77;;;;;;;5.72;55.04;94581.59;5080091;28;20619;-80
2022/03/04 08:04:42;;;;;;;52.37;29.57;;;;;;;5.66;53.89;94585.75;5084982;28;20212;-81
2022/03/04 08:07:07;;;;;;;45.37;24.20;;;;;;;5.45;52.63;94588.38;5076633;28;20185;-79
2022/03/04 08:09:34;;;;;;;53.50;27.63;;;;;;;5.15;53.19;94592.88;5076186;28;20190;-80
2022/03/04 08:11:59;;;;;;;56.23;27.80;;;;;;;4.83;55.64;94549.78;5082353;28;20185;-81
2022/03/04 08:14:28;;;;;;;62.70;31.83;;;;;;;5.06;55.93;94567.88;5084289;28;20189;-81
2022/03/04 08:16:53;;;;;;;60.27;29.40;;;;;;;4.97;55.03;94592.47;5075666;28;20183;-81
2022/03/04 08:19:22;;;;;;;55.80;28.73;;;;;;;4.86;55.16;94584.09;5080182;28;20199;-81
2022/03/04 08:21:47;;;;;;;54.00;27.93;;;;;;;4.78;54.99;94594.66;5085391;28;20192;-81
2022/03/04 08:24:13;;;;;;;56.97;27.53;;;;;;;4.32;55.35;94552.38;5074662;28;20175;-81
2022/03/04 08:26:41;;;;;;;39.40;21.40;;;;;;;4.72;56.17;94597.19;5081802;28;20574;-82
2022/03/04 08:29:07;;;;;;;46.10;21.47;;;;;;;4.64;55.34;94551.16;5084409;28;20748;-81
2022/03/04 08:31:32;;;;;;;37.87;20.27;;;;;;;5.17;53.20;94590.91;5088318;28;20641;-81
2022/03/04 08:33:59;;;;;;;37.60;20.03;;;;;;;5.19;52.41;94552.41;5086945;28;20173;-81
2022/03/04 08:36:24;;;;;;;32.80;18.53;;;;;;;5.65;51.44;94566.66;5083767;28;20585;-82
2022/03/04 08:38:50;;;;;;;37.60;17.97;;;;;;;6.29;49.85;94597.16;5079401;28;20176;-81
2022/03/04 08:41:16;;;;;;;35.33;18.03;;;;;;;6.55;49.35;94612.19;5076468;28;20178;-81
2022/03/04 08:43:41;;;;;;;41.50;20.20;;;;;;;6.86;48.90;94599.50;5078424;28;20558;-81
2022/03/04 08:46:08;;;;;;;41.47;20.90;;;;;;;6.85;48.19;94568.28;5080142;28;20173;-82
2022/03/04 08:48:33;;;;;;;33.60;17.87;;;;;;;7.24;49.29;94607.72;5081307;28;20202;-81
2022/03/04 08:50:59;;;;;;;43.90;19.53;;;;;;;7.41;47.68;94574.94;5080637;28;20186;-80
2022/03/04 08:53:27;;;;;;;36.97;19.07;;;;;;;7.68;46.54;94565.31;5075370;28;20174;-81
2022/03/04 08:55:53;;;;;;;41.00;19.07;;;;;;;8.25;46.99;94605.84;5091386;28;20158;-81
2022/03/04 08:58:19;;;;;;;35.37;19.23;;;;;;;8.43;45.89;94590.31;5078358;28;20572;-81
2022/03/04 09:00:44;;;;;;;36.50;19.03;;;;;;;8.97;44.42;94605.75;5084645;28;20178;-81
2022/03/04 09:03:10;;;;;;;33.43;19.07;;;;;;;9.10;43.12;94581.25;5081592;28;20187;-82
2022/03/04 09:05:35;;;;;;;41.47;19.17;;;;;;;9.66;42.70;94612.94;5092527;28;20219;-81
2022/03/04 09:08:01;;;;;;;40.90;20.23;;;;;;;9.92;41.64;94606.69;5087832;28;20207;-82
2022/03/04 09:10:27;;;;;;;34.40;17.50;;;;;;;10.08;40.85;94600.09;5082886;28;20194;-82
2022/03/04 09:12:53;;;;;;;32.27;17.60;;;;;;;10.23;41.29;94586.66;5076918;28;20185;-83
2022/03/04 09:15:19;;;;;;;36.30;18.10;;;;;;;10.18;39.53;94574.97;5074230;28;20174;-82
2022/03/04 09:17:44;;;;;;;39.67;17.30;;;;;;;10.30;39.88;94595.28;5076171;28;20185;-81
2022/03/04 09:20:14;;;;;;;31.17;16.30;;;;;;;10.06;39.25;94586.34;5078607;28;20245;-81
2022/03/04 09:22:40;;;;;;;29.50;14.97;;;;;;;9.31;39.62;94565.22;5085024;28;20186;-81
2022/03/04 09:25:05;;;;;;;37.60;17.47;;;;;;;9.28;40.95;94555.13;5082666;28;20527;-81
2022/03/04 09:27:31;;;;;;;30.73;17.03;;;;;;;9.50;40.65;94588.97;5090433;28;20611;-81
2022/03/04 09:29:56;;;;;;;36.07;17.73;;;;;;;9.10;40.13;94576.00;5088196;28;20242;-80
2022/03/04 09:32:23;;;;;;;28.97;16.50;;;;;;;8.86;40.69;94598.50;5086138;28;20165;-81
2022/03/04 09:34:48;;;;;;;37.13;17.80;;;;;;;8.22;41.77;94562.47;5077980;28;20179;-82
2022/03/04 09:37:14;;;;;;;40.63;18.70;;;;;;;7.74;42.95;94556.63;5078541;28;20178;-81
2022/03/04 09:39:39;;;;;;;30.13;18.00;;;;;;;7.55;44.46;94589.66;5082048;28;20173;-82
2022/03/04 09:42:06;;;;;;;45.77;18.50;;;;;;;7.62;44.41;94588.84;5093968;28;20575;-81
2022/03/04 09:44:32;;;;;;;35.20;17.00;;;;;;;7.19;44.79;94549.88;5095009;28;20611;-81
2022/03/04 09:47:00;;;;;;;38.37;20.37;;;;;;;7.46;46.89;94587.41;5085129;28;20217;-81
2022/03/04 09:49:32;;;;;;;35.57;18.33;;;;;;;7.24;45.73;94565.00;5088749;28;20239;-81
2022/03/04 09:51:58;;;;;;;35.67;17.70;;;;;;;7.15;45.24;94531.16;5072962;28;20253;-81
2022/03/04 09:54:28;;;;;;;35.17;19.00;;;;;;;7.93;44.92;94587.28;5074615;28;20273;-81
2022/03/04 09:56:55;;;;;;;33.97;17.80;;;;;;;8.18;43.84;94586.69;5074528;28;20174;-82
2022/03/04 09:59:21;;;;;;;45.37;19.97;;;;;;;8.52;43.55;94594.34;5073001;28;20638;-81
2022/03/04 10:01:47;;;;;;;36.63;19.13;;;;;;;8.54;43.02;94591.53;5074291;28;20159;-81
2022/03/04 10:04:13;;;;;;;31.67;18.70;;;;;;;8.55;43.04;94546.72;5074439;28;20615;-81
2022/03/04 10:06:38;;;;;;;31.47;17.23;;;;;;;8.95;42.45;94578.09;5074115;28;20184;-81
2022/03/04 10:09:05;;;;;;;35.63;16.80;;;;;;;9.02;41.83;94573.63;5074247;28;20194;-80
2022/03/04 10:11:32;;;;;;;41.20;19.60;;;;;;;9.00;42.15;94557.25;5074507;28;20163;-79
2022/03/04 10:14:13;;;;;;;31.93;16.63;;;;;;;8.97;40.68;94574.25;5073445;28;20676;-79
2022/03/04 10:16:41;;;;;;;35.43;17.47;;;;;;;8.80;43.83;94565.22;5079823;28;20184;-80
2022/03/04 10:19:11;;;;;;;39.23;17.97;;;;;;;8.69;44.89;94561.41;5094331;28;20173;-81
2022/03/04 10:21:47;;;;;;;41.23;18.40;;;;;;;8.84;44.25;94555.09;5079835;28;20277;-83
2022/03/04 10:24:14;;;;;;;38.80;18.80;;;;;;;8.89;44.25;94548.25;5073335;28;20197;-81
2022/03/04 10:26:39;;;;;;;32.43;17.10;;;;;;;9.07;42.62;94545.75;5080103;28;20209;-80
2022/03/04 10:29:17;;;;;;;35.30;17.07;;;;;;;9.18;41.53;94557.38;5099766;28;20197;-82
2022/03/04 10:32:05;;;;;;;33.80;17.50;;;;;;;9.32;42.20;94553.69;5103663;28;20188;-83
2022/03/04 10:34:47;;;;;;;33.13;17.37;;;;;;;9.34;43.37;94550.88;5100726;28;20177;-82
2022/03/04 10:37:14;;;;;;;32.10;17.33;;;;;;;8.78;40.79;94513.94;5081599;28;20178;-82
2022/03/04 10:40:05;;;;;;;37.80;19.33;;;;;;;8.93;42.12;94538.09;5084638;28;20186;-82
2022/03/04 10:42:38;;;;;;;33.07;16.17;;;;;;;8.93;41.31;94538.09;5095890;28;20177;-82
2022/03/04 10:45:09;;;;;;;35.07;17.97;;;;;;;8.82;42.10;94510.69;5086725;28;20269;-81
2022/03/04 10:47:44;;;;;;;34.50;17.37;;;;;;;8.86;42.36;94513.72;5073275;28;20167;-80
2022/03/04 10:50:13;;;;;;;37.87;17.77;;;;;;;8.97;43.75;94508.63;5080688;28;20189;-81
2022/03/04 10:52:53;;;;;;;31.47;17.37;;;;;;;8.88;41.83;94473.13;5076667;28;20155;-81
2022/03/04 10:55:26;;;;;;;36.27;17.47;;;;;;;9.15;43.98;94489.56;5081152;28;20684;-83
2022/03/04 10:57:52;;;;;;;33.47;14.70;;;;;;;9.32;42.34;94511.66;5055674;28;20159;-83
2022/03/04 11:03:41;;;;;;;39.37;18.70;;;;;;;8.67;42.73;94508.34;5051123;28;20194;-83
2022/03/04 11:06:12;;;;;;;30.90;16.93;;;;;;;8.50;43.78;94503.75;5049291;28;20666;-83
2022/03/04 11:08:38;;;;;;;21.60;11.77;;;;;;;8.28;44.19;94505.81;5048156;28;20808;-83
2022/03/04 11:11:05;;;;;;;18.90;9.77;;;;;;;8.23;45.38;94495.91;5049060;28;20639;-83
2022/03/04 11:13:34;;;;;;;26.37;13.93;;;;;;;8.19;44.72;94444.09;5049559;28;20171;-82
2022/03/04 11:16:00;;;;;;;33.33;17.17;;;;;;;8.57;44.38;94494.03;5049632;28;20259;-83
2022/03/04 11:18:26;;;;;;;35.57;15.33;;;;;;;8.78;44.63;94477.22;5052226;28;20623;-83
2022/03/04 11:20:56;;;;;;;15.77;8.90;;;;;;;8.96;44.51;94487.84;5050676;28;20206;-83
2022/03/04 11:23:27;;;;;;;16.00;8.13;;;;;;;9.05;43.69;94441.94;5052463;28;20193;-81